Time;durP1;ratioP1;P1;durP2;ratioP2;P2;SDS_P1;SDS_P2;PMS_P1;PMS_P2;Temp;Humidity;BMP_temperature;BMP_pressure;BME280_temperature;BME280_humidity;BME280_pressure;Samples;Min_cycle;Max_cycle;Signal;HPM_P1;HPM_P2
2022/01/31 00:01:03;;;;;;;2.88;2.25;;;18.80;33.80;;;;;;5168556;27;46897;-20
2022/01/31 00:03:33;;;;;;;2.80;1.90;;;18.80;33.80;;;;;;5168576;27;47378;-20
2022/01/31 00:06:00;;;;;;;3.05;2.10;;;18.80;33.80;;;;;;5168228;27;48878;-20
2022/01/31 00:08:27;;;;;;;3.17;2.08;;;18.80;33.70;;;;;;5168005;27;46797;-20
2022/01/31 00:10:55;;;;;;;3.13;2.17;;;18.80;33.60;;;;;;5168648;27;46994;-20
2022/01/31 00:13:26;;;;;;;2.80;1.92;;;18.90;33.60;;;;;;5168644;27;47208;-21
2022/01/31 00:15:56;;;;;;;2.25;1.80;;;18.90;33.50;;;;;;5168445;27;47104;-22
2022/01/31 00:18:22;;;;;;;1.63;1.52;;;18.90;33.50;;;;;;5168298;27;47186;-21
2022/01/31 00:20:49;;;;;;;2.10;2.00;;;18.90;33.40;;;;;;5168133;27;46943;-20
2022/01/31 00:23:16;;;;;;;2.17;1.98;;;19.00;33.50;;;;;;5168221;27;46947;-21
2022/01/31 00:25:42;;;;;;;2.70;1.85;;;19.00;33.40;;;;;;5167931;27;47062;-21
2022/01/31 00:28:10;;;;;;;2.75;2.03;;;19.00;33.40;;;;;;5167800;27;46807;-21
2022/01/31 00:30:37;;;;;;;2.53;1.90;;;19.00;33.40;;;;;;5168357;27;46901;-21
2022/01/31 00:33:04;;;;;;;2.05;1.80;;;18.90;33.30;;;;;;5167899;27;46949;-21
2022/01/31 00:35:31;;;;;;;2.13;1.60;;;19.00;33.40;;;;;;5168150;27;49052;-21
2022/01/31 00:37:58;;;;;;;2.17;1.63;;;19.00;33.40;;;;;;5168063;27;47450;-21
2022/01/31 00:40:25;;;;;;;2.58;2.00;;;19.00;33.40;;;;;;5167983;27;46989;-21
2022/01/31 00:42:51;;;;;;;2.78;1.70;;;19.00;33.40;;;;;;5168120;27;46877;-21
2022/01/31 00:45:24;;;;;;;2.70;2.00;;;18.90;33.40;;;;;;5167819;27;47844;-21
2022/01/31 00:48:00;;;;;;;3.13;1.95;;;19.00;33.50;;;;;;5167618;27;47309;-20
2022/01/31 00:50:27;;;;;;;2.67;1.70;;;18.90;33.40;;;;;;5167887;27;46822;-15
2022/01/31 00:52:54;;;;;;;2.75;1.73;;;19.00;33.40;;;;;;5167889;27;47376;-15
2022/01/31 00:55:21;;;;;;;2.75;1.85;;;19.00;33.40;;;;;;5167892;27;48197;-17
2022/01/31 00:57:48;;;;;;;2.80;2.03;;;19.00;33.40;;;;;;5170047;27;47044;-15
2022/01/31 01:00:16;;;;;;;3.20;1.65;;;18.90;33.40;;;;;;5171753;27;46806;-16
2022/01/31 01:02:44;;;;;;;2.00;1.75;;;19.00;33.40;;;;;;5171537;27;46883;-15
2022/01/31 01:05:11;;;;;;;1.67;1.50;;;18.90;33.40;;;;;;5171433;27;48090;-15
2022/01/31 01:07:38;;;;;;;2.65;1.70;;;18.90;33.40;;;;;;5171371;27;46837;-15
2022/01/31 01:10:05;;;;;;;2.28;1.85;;;19.00;33.40;;;;;;5171501;27;46721;-16
2022/01/31 01:12:32;;;;;;;3.45;1.83;;;18.90;33.40;;;;;;5171219;27;47280;-16
2022/01/31 01:14:59;;;;;;;1.80;1.50;;;18.90;33.40;;;;;;5171361;27;46955;-14
2022/01/31 01:17:25;;;;;;;3.20;1.50;;;19.00;33.40;;;;;;5171064;27;46881;-15
2022/01/31 01:19:53;;;;;;;1.80;1.67;;;18.90;33.40;;;;;;5170994;27;46998;-15
2022/01/31 01:22:20;;;;;;;2.80;1.88;;;18.90;33.40;;;;;;5171425;27;46878;-15
2022/01/31 01:24:48;;;;;;;1.63;1.50;;;18.90;33.40;;;;;;5171402;27;48232;-16
2022/01/31 01:27:15;;;;;;;1.85;1.70;;;18.90;33.40;;;;;;5170657;27;47561;-14
2022/01/31 01:29:42;;;;;;;1.67;1.52;;;18.90;33.40;;;;;;5171184;27;46922;-16
2022/01/31 01:32:10;;;;;;;3.38;1.90;;;18.90;33.50;;;;;;5171110;27;46730;-15
2022/01/31 01:34:36;;;;;;;3.78;1.63;;;18.90;33.40;;;;;;5170834;27;49064;-15
2022/01/31 01:37:04;;;;;;;3.10;1.70;;;18.90;33.40;;;;;;5170927;27;46824;-15
2022/01/31 01:39:31;;;;;;;2.80;1.98;;;18.90;33.30;;;;;;5170760;27;46897;-15
2022/01/31 01:41:58;;;;;;;2.75;1.88;;;18.90;33.30;;;;;;5170772;27;46847;-15
2022/01/31 01:44:45;;;;;;;2.97;1.67;;;18.90;33.30;;;;;;5170783;27;48148;-21
2022/01/31 01:47:12;;;;;;;2.58;1.73;;;18.90;33.40;;;;;;5170620;27;47326;-21
2022/01/31 01:49:38;;;;;;;3.03;1.88;;;18.90;33.40;;;;;;5170995;27;47095;-21
2022/01/31 01:52:07;;;;;;;2.30;1.90;;;18.90;33.40;;;;;;5170823;27;46989;-21
2022/01/31 01:54:34;;;;;;;2.60;1.88;;;18.90;33.40;;;;;;5171058;27;48098;-20
2022/01/31 01:57:02;;;;;;;2.50;1.88;;;18.90;33.30;;;;;;5170478;27;46828;-21
2022/01/31 01:59:29;;;;;;;2.97;1.88;;;19.00;33.40;;;;;;5170563;27;46920;-20
2022/01/31 02:01:56;;;;;;;2.90;1.83;;;19.00;33.40;;;;;;5170737;27;46936;-21
2022/01/31 02:04:22;;;;;;;2.58;1.98;;;19.00;33.40;;;;;;5170489;27;48207;-21
2022/01/31 02:06:49;;;;;;;2.90;2.45;;;19.00;33.40;;;;;;5170226;27;46753;-21
2022/01/31 02:09:21;;;;;;;2.63;1.90;;;18.90;33.30;;;;;;5169463;27;46919;-21
2022/01/31 02:11:48;;;;;;;2.88;1.92;;;18.90;33.30;;;;;;5170262;27;47207;-20
2022/01/31 02:14:14;;;;;;;2.33;1.80;;;19.00;33.40;;;;;;5170311;27;48097;-20
2022/01/31 02:16:41;;;;;;;3.22;1.90;;;19.00;33.40;;;;;;5170127;27;46921;-21
2022/01/31 02:19:13;;;;;;;2.38;1.92;;;18.90;33.30;;;;;;5170115;27;46807;-21
2022/01/31 02:21:42;;;;;;;2.40;1.90;;;18.90;33.30;;;;;;5170661;27;46949;-21
2022/01/31 02:24:08;;;;;;;2.22;1.60;;;18.90;33.30;;;;;;5170227;27;48206;-20
2022/01/31 02:26:35;;;;;;;1.80;1.65;;;19.00;33.40;;;;;;5170215;27;46994;-20
2022/01/31 02:29:02;;;;;;;2.47;1.83;;;18.90;33.30;;;;;;5169915;27;47020;-21
2022/01/31 02:31:28;;;;;;;1.92;1.45;;;18.90;33.30;;;;;;5170127;27;46882;-21
2022/01/31 02:33:55;;;;;;;2.75;1.70;;;18.90;33.30;;;;;;5170011;27;48988;-21
2022/01/31 02:36:22;;;;;;;2.28;1.80;;;18.90;33.30;;;;;;5169984;27;46918;-21
2022/01/31 02:38:50;;;;;;;3.33;1.88;;;18.90;33.30;;;;;;5169728;27;46943;-21
2022/01/31 02:41:16;;;;;;;2.38;1.85;;;18.90;33.30;;;;;;5170102;27;47285;-21
2022/01/31 02:43:48;;;;;;;2.40;1.70;;;18.90;33.30;;;;;;5169912;27;48226;-20
2022/01/31 02:46:15;;;;;;;2.00;1.70;;;18.90;33.30;;;;;;5169544;27;46883;-21
2022/01/31 02:48:42;;;;;;;2.05;1.55;;;18.90;33.30;;;;;;5169891;27;47033;-21
2022/01/31 02:51:10;;;;;;;2.03;1.67;;;18.90;33.30;;;;;;5169770;27;47106;-21
2022/01/31 02:53:40;;;;;;;1.65;1.55;;;18.90;33.30;;;;;;5169692;27;47077;-21
2022/01/31 02:56:09;;;;;;;2.88;1.58;;;18.90;33.40;;;;;;5169501;27;46882;-21
2022/01/31 02:58:35;;;;;;;2.85;1.67;;;18.90;33.40;;;;;;5169493;27;46929;-21
2022/01/31 03:01:02;;;;;;;2.20;1.58;;;18.90;33.30;;;;;;5169527;27;46844;-21
2022/01/31 03:03:29;;;;;;;1.67;1.52;;;18.90;33.30;;;;;;5169473;27;48785;-21
2022/01/31 03:05:55;;;;;;;1.70;1.60;;;18.90;33.30;;;;;;5169538;27;47225;-21
2022/01/31 03:08:23;;;;;;;2.42;1.50;;;18.90;33.40;;;;;;5168960;27;46937;-21
2022/01/31 03:10:50;;;;;;;3.00;1.85;;;18.90;33.40;;;;;;5169694;27;46890;-21
2022/01/31 03:13:18;;;;;;;1.70;1.58;;;18.90;33.40;;;;;;5169139;27;47207;-21
2022/01/31 03:15:45;;;;;;;2.20;1.58;;;18.90;33.30;;;;;;5169097;27;46884;-22
2022/01/31 03:18:12;;;;;;;3.13;1.70;;;18.90;33.40;;;;;;5169173;27;46966;-21
2022/01/31 03:20:39;;;;;;;2.78;1.60;;;18.90;33.30;;;;;;5169398;27;46901;-20
2022/01/31 03:23:05;;;;;;;1.73;1.52;;;18.90;33.30;;;;;;5168777;27;47960;-21
2022/01/31 03:25:33;;;;;;;2.05;1.58;;;18.90;33.30;;;;;;5169185;27;46878;-21
2022/01/31 03:28:00;;;;;;;1.88;1.70;;;18.90;33.30;;;;;;5169216;27;47321;-21
2022/01/31 03:30:29;;;;;;;2.35;1.45;;;18.90;33.30;;;;;;5169452;27;46923;-21
2022/01/31 03:32:55;;;;;;;2.45;1.40;;;18.90;33.30;;;;;;5168767;27;48248;-21
2022/01/31 03:35:23;;;;;;;2.80;1.58;;;18.90;33.40;;;;;;5169059;27;47024;-21
2022/01/31 03:37:50;;;;;;;2.55;1.80;;;19.00;33.40;;;;;;5168642;27;47003;-21
2022/01/31 03:40:17;;;;;;;2.38;1.40;;;19.00;33.40;;;;;;5169223;27;46851;-21
2022/01/31 03:42:43;;;;;;;3.63;1.50;;;18.90;33.30;;;;;;5168807;27;48827;-21
2022/01/31 03:45:10;;;;;;;1.58;1.45;;;19.00;33.40;;;;;;5168622;27;47021;-21
2022/01/31 03:47:44;;;;;;;1.58;1.48;;;18.90;33.30;;;;;;5168654;27;46761;-20
2022/01/31 03:50:11;;;;;;;1.90;1.40;;;18.90;33.30;;;;;;5168893;27;46820;-21
2022/01/31 03:52:38;;;;;;;2.00;1.50;;;18.90;33.30;;;;;;5168881;27;49123;-21
2022/01/31 03:55:06;;;;;;;1.92;1.58;;;18.90;33.30;;;;;;5168954;27;46995;-21
2022/01/31 03:57:33;;;;;;;2.15;1.50;;;18.90;33.40;;;;;;5168188;27;47002;-21
2022/01/31 04:00:00;;;;;;;1.13;1.02;;;18.90;33.40;;;;;;5168592;27;46886;-21
2022/01/31 04:02:27;;;;;;;2.55;1.45;;;18.90;33.40;;;;;;5168081;27;49192;-21
2022/01/31 04:04:55;;;;;;;1.90;1.50;;;18.90;33.40;;;;;;5168603;27;47149;-21
2022/01/31 04:07:22;;;;;;;2.10;1.40;;;19.00;33.40;;;;;;5168382;27;46893;-21
2022/01/31 04:09:48;;;;;;;1.90;1.60;;;19.00;33.40;;;;;;5168487;27;46960;-21
2022/01/31 04:12:15;;;;;;;2.67;1.42;;;19.00;33.50;;;;;;5168207;27;48293;-21
2022/01/31 04:14:42;;;;;;;2.35;1.50;;;19.00;33.50;;;;;;5168424;27;47221;-21
2022/01/31 04:17:10;;;;;;;2.70;1.52;;;19.00;33.50;;;;;;5168407;27;46900;-21
2022/01/31 04:19:37;;;;;;;1.88;1.35;;;19.00;33.50;;;;;;5168715;27;47110;-20
2022/01/31 04:22:08;;;;;;;1.88;1.52;;;19.00;33.50;;;;;;5168197;27;47849;-21
2022/01/31 04:24:35;;;;;;;1.83;1.50;;;18.90;33.50;;;;;;5168429;27;47365;-21
2022/01/31 04:27:06;;;;;;;2.47;1.38;;;18.90;33.60;;;;;;5168343;27;46805;-21
2022/01/31 04:29:34;;;;;;;1.83;1.30;;;18.90;33.60;;;;;;5168504;27;46817;-20
2022/01/31 04:32:01;;;;;;;1.60;1.50;;;18.80;33.60;;;;;;5168760;27;48114;-20
2022/01/31 04:34:29;;;;;;;2.35;1.50;;;18.80;33.70;;;;;;5171495;27;46992;-21
2022/01/31 04:36:55;;;;;;;2.22;1.63;;;18.70;33.80;;;;;;5171646;27;46787;-20
2022/01/31 04:39:24;;;;;;;1.42;1.17;;;18.70;33.90;;;;;;5171919;27;47000;-21
2022/01/31 04:41:51;;;;;;;2.35;1.40;;;18.70;33.90;;;;;;5171630;27;48854;-21
2022/01/31 04:44:18;;;;;;;1.58;1.48;;;18.70;34.00;;;;;;5171614;27;46988;-21
2022/01/31 04:46:45;;;;;;;1.38;1.27;;;18.70;33.90;;;;;;5171508;27;47064;-20
2022/01/31 04:49:12;;;;;;;1.90;1.30;;;18.70;33.90;;;;;;5171656;27;47341;-20
2022/01/31 04:51:39;;;;;;;2.40;1.40;;;18.80;33.90;;;;;;5171579;27;48235;-20
2022/01/31 04:54:05;;;;;;;3.00;1.33;;;18.80;33.90;;;;;;5171664;27;46973;-20
2022/01/31 04:56:34;;;;;;;1.27;1.15;;;18.80;33.80;;;;;;5171174;27;46889;-20
2022/01/31 04:59:01;;;;;;;1.63;1.45;;;18.80;33.80;;;;;;5171584;27;46883;-21
2022/01/31 05:01:28;;;;;;;1.40;1.30;;;18.90;33.80;;;;;;5171378;27;48280;-20
2022/01/31 05:03:55;;;;;;;1.30;1.20;;;18.90;33.80;;;;;;5171350;27;46909;-21
2022/01/31 05:06:28;;;;;;;2.38;1.35;;;18.90;33.70;;;;;;5171403;27;46897;-21
2022/01/31 05:08:55;;;;;;;1.75;1.27;;;18.90;33.70;;;;;;5171819;27;47017;-21
2022/01/31 05:11:21;;;;;;;1.55;1.30;;;18.90;33.60;;;;;;5171278;27;49242;-20
2022/01/31 05:13:49;;;;;;;1.98;1.10;;;18.90;33.70;;;;;;5171448;27;46900;-21
2022/01/31 05:16:16;;;;;;;1.40;1.30;;;18.90;33.60;;;;;;5171124;27;46898;-21
2022/01/31 05:18:44;;;;;;;3.00;1.40;;;18.90;33.70;;;;;;5171563;27;46923;-21
2022/01/31 05:21:10;;;;;;;1.10;1.00;;;18.90;33.70;;;;;;5171084;27;47881;-20
2022/01/31 05:23:37;;;;;;;2.25;1.35;;;18.80;33.80;;;;;;5171237;27;47005;-20
2022/01/31 05:26:04;;;;;;;2.20;1.55;;;18.80;33.80;;;;;;5171218;27;46881;-21
2022/01/31 05:28:31;;;;;;;1.42;1.25;;;18.80;33.90;;;;;;5170941;27;47272;-20
2022/01/31 05:30:59;;;;;;;1.80;1.40;;;18.70;34.00;;;;;;5171100;27;49045;-21
2022/01/31 05:33:25;;;;;;;2.53;1.40;;;18.70;34.10;;;;;;5170880;27;47458;-20
2022/01/31 05:35:52;;;;;;;1.58;1.48;;;18.70;34.10;;;;;;5170988;27;46909;-21
2022/01/31 05:38:19;;;;;;;1.50;1.15;;;18.70;34.80;;;;;;5170869;27;46854;-21
2022/01/31 05:40:46;;;;;;;1.95;1.40;;;18.70;34.20;;;;;;5170894;27;48912;-21
2022/01/31 05:43:13;;;;;;;1.70;1.30;;;18.70;34.20;;;;;;5170385;27;46778;-21
2022/01/31 05:45:40;;;;;;;2.28;1.50;;;18.70;34.10;;;;;;5170695;27;46930;-21
2022/01/31 05:48:08;;;;;;;1.60;1.50;;;18.80;34.10;;;;;;5170714;27;46877;-21
2022/01/31 05:50:35;;;;;;;1.20;1.10;;;18.80;34.10;;;;;;5170801;27;48889;-20
2022/01/31 05:53:01;;;;;;;1.20;1.10;;;18.80;34.00;;;;;;5170468;27;47257;-21
2022/01/31 05:55:28;;;;;;;1.23;1.00;;;18.80;34.00;;;;;;5170483;27;46961;-21
2022/01/31 05:57:55;;;;;;;2.72;1.10;;;18.80;33.90;;;;;;5170484;27;46848;-21
2022/01/31 06:00:22;;;;;;;2.10;1.15;;;18.90;33.90;;;;;;5170537;27;47309;-21
2022/01/31 06:02:49;;;;;;;1.50;1.40;;;18.90;33.90;;;;;;5170109;27;46910;-21
2022/01/31 06:05:17;;;;;;;1.85;1.23;;;18.90;33.90;;;;;;5170446;27;46889;-21
2022/01/31 06:07:45;;;;;;;1.10;0.93;;;18.90;33.90;;;;;;5170521;27;46911;-20
2022/01/31 06:10:12;;;;;;;1.83;1.13;;;18.90;33.90;;;;;;5170405;27;49348;-21
2022/01/31 06:12:41;;;;;;;1.63;1.00;;;18.90;34.00;;;;;;5170348;27;47072;-21
2022/01/31 06:15:08;;;;;;;1.98;1.10;;;18.80;34.00;;;;;;5170335;27;46886;-21
2022/01/31 06:17:35;;;;;;;1.55;1.00;;;18.80;34.00;;;;;;5170414;27;46926;-21
2022/01/31 06:20:02;;;;;;;1.95;1.20;;;18.70;34.10;;;;;;5170362;27;47923;-21
2022/01/31 06:22:30;;;;;;;1.70;1.02;;;18.70;34.20;;;;;;5169814;27;46909;-20
2022/01/31 06:24:57;;;;;;;2.03;1.10;;;18.70;34.20;;;;;;5170025;27;46960;-21
2022/01/31 06:27:24;;;;;;;1.95;1.23;;;18.70;34.30;;;;;;5170297;27;46977;-21
2022/01/31 06:29:50;;;;;;;1.20;1.10;;;18.70;34.30;;;;;;5169760;27;47885;-21
2022/01/31 06:32:18;;;;;;;1.45;1.10;;;18.70;34.30;;;;;;5169095;27;47012;-20
2022/01/31 06:34:45;;;;;;;1.15;1.00;;;18.70;34.30;;;;;;5170157;27;46922;-20
2022/01/31 06:37:12;;;;;;;1.15;1.02;;;18.70;34.30;;;;;;5169966;27;46989;-21
2022/01/31 06:39:40;;;;;;;1.30;1.20;;;18.70;34.20;;;;;;5169552;27;49011;-21
2022/01/31 06:42:07;;;;;;;1.73;1.05;;;18.70;34.20;;;;;;5168839;27;46970;-21
2022/01/31 06:44:36;;;;;;;1.48;1.02;;;18.80;34.20;;;;;;5169904;27;46889;-21
2022/01/31 06:47:03;;;;;;;1.63;0.95;;;18.80;34.20;;;;;;5169763;27;46873;-21
2022/01/31 06:49:30;;;;;;;1.75;1.00;;;18.80;34.10;;;;;;5169682;27;47076;-21
2022/01/31 06:51:56;;;;;;;1.35;1.08;;;18.80;34.70;;;;;;5169620;27;46890;-21
2022/01/31 06:54:23;;;;;;;2.47;1.15;;;18.80;34.10;;;;;;5168994;27;47041;-21
2022/01/31 06:56:51;;;;;;;1.77;1.00;;;18.80;34.10;;;;;;5169859;27;47007;-20
2022/01/31 06:59:18;;;;;;;1.80;1.10;;;18.90;34.10;;;;;;5158609;27;47899;-20
2022/01/31 07:01:45;;;;;;;2.35;1.20;;;18.90;34.10;;;;;;5148171;27;47154;-21
2022/01/31 07:04:11;;;;;;;1.63;1.00;;;18.90;34.00;;;;;;5148643;27;46913;-20
2022/01/31 07:06:38;;;;;;;1.63;1.30;;;18.90;34.00;;;;;;5164209;27;47195;-22
2022/01/31 07:09:05;;;;;;;2.83;1.23;;;18.90;34.00;;;;;;5169404;27;48755;-21
2022/01/31 07:11:36;;;;;;;2.22;1.27;;;18.90;34.10;;;;;;5168848;27;46898;-21
2022/01/31 07:14:07;;;;;;;1.38;1.25;;;18.90;34.10;;;;;;5169506;27;46837;-21
2022/01/31 07:16:34;;;;;;;1.73;1.35;;;18.90;34.20;;;;;;5169456;27;46853;-22
2022/01/31 07:19:05;;;;;;;1.17;1.08;;;18.80;34.00;;;;;;5169310;27;49095;-22
2022/01/31 07:21:38;;;;;;;1.42;1.05;;;18.80;34.30;;;;;;5168811;27;47527;-21
2022/01/31 07:24:18;;;;;;;3.75;1.38;;;18.80;34.20;;;;;;5170596;27;47103;-21
2022/01/31 07:26:45;;;;;;;1.60;1.38;;;18.70;34.40;;;;;;5169261;27;46882;-21
2022/01/31 07:29:13;;;;;;;1.40;1.30;;;18.70;34.50;;;;;;5169003;27;48233;-21
2022/01/31 07:31:40;;;;;;;1.38;1.27;;;18.70;34.60;;;;;;5168798;27;46921;-21
2022/01/31 07:34:07;;;;;;;1.60;1.02;;;18.70;34.60;;;;;;5169423;27;46817;-21
2022/01/31 07:36:34;;;;;;;1.90;1.30;;;18.70;34.60;;;;;;5169316;27;46904;-22
2022/01/31 07:39:00;;;;;;;1.42;1.17;;;18.70;34.50;;;;;;5168732;27;47865;-22
2022/01/31 07:41:27;;;;;;;1.90;1.27;;;18.70;34.50;;;;;;5168684;27;46918;-21
2022/01/31 07:43:54;;;;;;;1.67;1.40;;;18.80;34.50;;;;;;5168949;27;46969;-22
2022/01/31 07:46:22;;;;;;;1.45;1.10;;;18.80;34.40;;;;;;5169226;27;46872;-21
2022/01/31 07:48:49;;;;;;;2.53;1.45;;;18.80;34.40;;;;;;5168721;27;49035;-21
2022/01/31 07:51:17;;;;;;;2.08;1.42;;;18.90;34.40;;;;;;5168724;27;46910;-21
2022/01/31 07:53:43;;;;;;;1.30;1.20;;;18.90;34.30;;;;;;5168619;27;46885;-21
2022/01/31 07:56:11;;;;;;;1.40;1.20;;;18.90;34.20;;;;;;5168615;27;47272;-21
2022/01/31 07:58:37;;;;;;;1.77;1.38;;;18.90;34.30;;;;;;5168692;27;49030;-21
2022/01/31 08:01:04;;;;;;;1.35;1.25;;;18.90;34.30;;;;;;5168315;27;46757;-21
2022/01/31 08:03:32;;;;;;;1.52;1.42;;;18.90;34.30;;;;;;5168288;27;46894;-21
2022/01/31 08:05:59;;;;;;;1.85;1.42;;;18.90;34.30;;;;;;5167714;27;47360;-22
2022/01/31 08:08:28;;;;;;;1.95;1.40;;;18.90;34.40;;;;;;5168391;27;47857;-16
2022/01/31 08:10:55;;;;;;;1.30;1.20;;;18.80;34.30;;;;;;5168288;27;46820;-15
2022/01/31 08:13:24;;;;;;;1.75;1.40;;;18.80;34.50;;;;;;5167768;27;46959;-16
2022/01/31 08:16:02;;;;;;;1.40;1.30;;;18.80;34.60;;;;;;5168395;27;46916;-16
2022/01/31 08:18:28;;;;;;;2.35;1.63;;;18.70;34.50;;;;;;5168316;27;47097;-16
2022/01/31 08:20:56;;;;;;;1.40;1.30;;;18.70;34.70;;;;;;5168304;27;46970;-16
2022/01/31 08:23:23;;;;;;;2.00;1.40;;;18.70;34.70;;;;;;5168105;27;47047;-15
2022/01/31 08:25:51;;;;;;;1.85;1.60;;;18.70;34.70;;;;;;5168447;27;47169;-16
2022/01/31 08:28:19;;;;;;;1.73;1.40;;;18.70;34.70;;;;;;5167838;27;48700;-16
2022/01/31 08:30:52;;;;;;;2.78;1.70;;;18.70;34.60;;;;;;5168237;27;46827;-22
2022/01/31 08:33:33;;;;;;;1.52;1.42;;;18.70;34.60;;;;;;5167958;27;46845;-16
2022/01/31 08:36:01;;;;;;;2.00;1.42;;;18.80;34.60;;;;;;5168336;27;47093;-15
2022/01/31 08:38:29;;;;;;;3.00;1.80;;;18.80;34.50;;;;;;5167629;27;49071;-15
2022/01/31 08:40:56;;;;;;;1.58;1.48;;;18.90;34.50;;;;;;5167833;27;47242;-16
2022/01/31 08:43:22;;;;;;;3.28;1.50;;;18.90;34.40;;;;;;5168122;27;47141;-15
2022/01/31 08:45:50;;;;;;;2.45;1.63;;;18.90;34.30;;;;;;5168347;27;47337;-16
2022/01/31 08:48:17;;;;;;;2.17;1.50;;;18.90;34.30;;;;;;5167517;27;48204;-16
2022/01/31 08:50:44;;;;;;;3.55;1.73;;;18.90;34.30;;;;;;5168185;27;47037;-17
2022/01/31 08:53:12;;;;;;;3.67;1.92;;;18.90;34.30;;;;;;5167956;27;46807;-16
2022/01/31 08:55:39;;;;;;;4.85;1.48;;;18.90;34.90;;;;;;5167886;27;47116;-16
2022/01/31 08:58:06;;;;;;;7.13;2.10;;;18.90;35.20;;;;;;5167541;27;48137;-16
2022/01/31 09:00:36;;;;;;;5.10;2.00;;;18.80;35.20;;;;;;5167930;27;46889;-16
2022/01/31 09:03:18;;;;;;;3.33;1.80;;;18.80;35.30;;;;;;5167448;27;47882;-15
2022/01/31 09:05:45;;;;;;;8.80;1.92;;;18.80;35.40;;;;;;5167864;27;47074;-16
2022/01/31 09:08:13;;;;;;;11.05;2.28;;;18.80;35.50;;;;;;5167215;27;48066;-16
2022/01/31 09:10:43;;;;;;;7.38;2.70;;;18.80;35.70;;;;;;5167655;27;47458;-16
2022/01/31 09:13:10;;;;;;;6.82;2.60;;;18.70;35.80;;;;;;5167468;27;46826;-16
2022/01/31 09:15:37;;;;;;;12.23;2.65;;;18.70;36.00;;;;;;5167970;27;46912;-16
2022/01/31 09:18:03;;;;;;;7.78;2.90;;;18.70;36.00;;;;;;5168877;27;48115;-16
2022/01/31 09:20:30;;;;;;;5.72;3.30;;;18.70;36.00;;;;;;5170935;27;46841;-16
2022/01/31 09:22:57;;;;;;;5.47;2.80;;;18.80;35.90;;;;;;5171190;27;46907;-15
2022/01/31 09:25:28;;;;;;;11.75;4.55;;;18.80;35.90;;;;;;5171057;27;47193;-16
2022/01/31 09:27:54;;;;;;;7.50;4.80;;;18.80;35.90;;;;;;5171191;27;47823;-16
2022/01/31 09:30:22;;;;;;;9.35;5.40;;;18.80;35.90;;;;;;5170909;27;46829;-16
2022/01/31 09:32:49;;;;;;;12.68;6.40;;;18.80;35.80;;;;;;5170476;27;46877;-15
2022/01/31 09:35:15;;;;;;;10.82;6.70;;;18.90;35.80;;;;;;5171071;27;47132;-16
2022/01/31 09:37:42;;;;;;;14.00;8.32;;;18.90;36.60;;;;;;5170942;27;46918;-16
2022/01/31 09:40:12;;;;;;;21.23;8.98;;;18.90;36.20;;;;;;5170666;27;47623;-17
2022/01/31 09:42:57;;;;;;;14.63;10.32;;;18.90;36.10;;;;;;5170897;27;46730;-15
2022/01/31 09:45:37;;;;;;;12.70;7.95;;;18.90;36.10;;;;;;5170909;27;46827;-15
2022/01/31 09:50:49;;;;;;;14.23;8.07;;;18.90;36.10;;;;;;5167825;27;46885;-15
2022/01/31 09:53:16;;;;;;;13.30;8.70;;;18.90;36.10;;;;;;5170677;27;46934;-16
2022/01/31 09:55:44;;;;;;;13.93;9.77;;;18.90;36.30;;;;;;5170989;27;46948;-17
2022/01/31 09:58:12;;;;;;;13.45;9.25;;;18.90;36.30;;;;;;5170151;27;48782;-16
2022/01/31 10:00:39;;;;;;;15.95;9.95;;;18.90;36.40;;;;;;5170234;27;47024;-16
2022/01/31 10:03:07;;;;;;;11.50;8.98;;;18.90;36.50;;;;;;5170424;27;47049;-15
2022/01/31 10:05:34;;;;;;;13.63;9.40;;;18.80;36.40;;;;;;5170555;27;46938;-16
2022/01/31 10:08:09;;;;;;;16.98;9.60;;;18.80;36.50;;;;;;5169482;27;46877;-15
2022/01/31 10:10:39;;;;;;;17.38;8.52;;;18.80;36.80;;;;;;5170417;27;46892;-15
2022/01/31 10:16:27;;;;;;;19.08;8.57;;;18.70;36.90;;;;;;5167612;27;46946;-22
2022/01/31 10:19:01;;;;;;;14.30;8.10;;;18.70;37.10;;;;;;5170076;27;49168;-21
2022/01/31 10:21:28;;;;;;;11.52;8.23;;;18.70;37.10;;;;;;5169871;27;46817;-22
2022/01/31 10:23:54;;;;;;;12.60;7.88;;;18.70;37.80;;;;;;5170292;27;46944;-21
2022/01/31 10:26:29;;;;;;;12.95;7.88;;;18.70;37.20;;;;;;5169951;27;46904;-22
2022/01/31 10:29:10;;;;;;;14.90;7.30;;;18.70;37.20;;;;;;5169046;27;47952;-21
2022/01/31 10:31:37;;;;;;;13.55;6.93;;;18.80;37.30;;;;;;5169717;27;47255;-22
2022/01/31 10:34:14;;;;;;;8.40;6.65;;;18.80;37.30;;;;;;5169963;27;46944;-21
2022/01/31 10:36:40;;;;;;;9.77;6.32;;;18.80;37.20;;;;;;5169874;27;47005;-21
2022/01/31 10:39:13;;;;;;;13.55;7.55;;;18.90;37.10;;;;;;5169722;27;48878;-22
2022/01/31 10:44:59;;;;;;;8.77;6.18;;;18.90;37.20;;;;;;5166778;27;46946;-22
2022/01/31 10:53:07;;;;;;;9.90;6.10;;;18.80;37.10;;;;;;5168945;27;46956;-21
2022/01/31 10:55:34;;;;;;;9.85;5.85;;;18.80;37.20;;;;;;5169530;27;46822;-22
2022/01/31 10:58:04;;;;;;;12.50;5.82;;;18.80;37.30;;;;;;5169522;27;46975;-21
2022/01/31 11:00:36;;;;;;;14.90;5.95;;;18.80;37.30;;;;;;5165105;27;46880;-15
2022/01/31 11:03:28;;;;;;;12.88;6.15;;;18.70;37.10;;;;;;5159002;27;47103;-16
2022/01/31 11:05:55;;;;;;;8.18;5.30;;;18.70;37.30;;;;;;5151702;27;46941;-16
2022/01/31 11:08:22;;;;;;;7.78;5.30;;;18.70;37.30;;;;;;5169500;27;46904;-15
2022/01/31 11:10:49;;;;;;;7.40;5.47;;;18.80;37.30;;;;;;5169243;27;48083;-17
2022/01/31 11:13:16;;;;;;;9.30;5.63;;;18.70;37.20;;;;;;5168911;27;46905;-16
2022/01/31 11:15:45;;;;;;;7.55;4.75;;;18.80;37.20;;;;;;5169264;27;46941;-14
2022/01/31 11:18:12;;;;;;;10.55;5.25;;;18.80;36.90;;;;;;5169387;27;47264;-16
2022/01/31 11:20:41;;;;;;;9.85;5.43;;;18.80;37.20;;;;;;5169101;27;48775;-16
2022/01/31 11:23:07;;;;;;;8.30;4.82;;;18.80;37.20;;;;;;5168741;27;46918;-15
2022/01/31 11:25:34;;;;;;;14.82;4.93;;;18.80;37.20;;;;;;5168812;27;46887;-16
2022/01/31 11:28:03;;;;;;;13.45;5.22;;;18.80;37.30;;;;;;5169011;27;46773;-15
2022/01/31 11:30:30;;;;;;;9.02;4.85;;;18.80;37.30;;;;;;5169007;27;49122;-16
2022/01/31 11:32:58;;;;;;;7.80;4.60;;;18.80;37.40;;;;;;5168247;27;46758;-15
2022/01/31 11:35:25;;;;;;;12.18;4.38;;;18.80;37.40;;;;;;5169139;27;46874;-16
2022/01/31 11:37:52;;;;;;;7.30;4.32;;;18.70;37.40;;;;;;5168820;27;47221;-15
2022/01/31 11:40:18;;;;;;;10.57;4.78;;;18.70;37.40;;;;;;5168193;27;47916;-16
2022/01/31 11:42:46;;;;;;;9.65;4.22;;;18.70;37.50;;;;;;5162905;27;47255;-15
2022/01/31 11:45:15;;;;;;;5.03;3.85;;;18.70;37.50;;;;;;5168872;27;46802;-14
2022/01/31 11:47:41;;;;;;;9.98;4.43;;;18.70;37.40;;;;;;5168508;27;47256;-15
2022/01/31 11:50:12;;;;;;;8.70;4.15;;;18.70;37.50;;;;;;5168502;27;48135;-17
2022/01/31 11:52:44;;;;;;;7.18;3.80;;;18.70;37.00;;;;;;5168437;27;47100;-16
2022/01/31 11:55:12;;;;;;;8.55;4.30;;;18.70;37.50;;;;;;5168862;27;47061;-16
2022/01/31 11:57:39;;;;;;;7.55;3.90;;;18.80;37.50;;;;;;5168718;27;46811;-16
2022/01/31 12:00:07;;;;;;;5.05;3.35;;;18.80;37.40;;;;;;5168678;27;48639;-15
2022/01/31 12:02:40;;;;;;;5.47;3.85;;;18.80;37.30;;;;;;5168413;27;46829;-15
2022/01/31 12:05:11;;;;;;;5.15;3.50;;;18.80;37.20;;;;;;5168517;27;47028;-15
2022/01/31 12:07:41;;;;;;;5.00;3.38;;;18.80;37.90;;;;;;5168441;27;46837;-15
2022/01/31 12:10:10;;;;;;;6.13;3.33;;;18.80;37.30;;;;;;5168032;27;47542;-15
2022/01/31 12:12:47;;;;;;;7.53;3.65;;;18.80;37.40;;;;;;5168290;27;46909;-15
2022/01/31 12:15:36;;;;;;;7.93;3.25;;;18.80;37.40;;;;;;5168330;27;46855;-15
2022/01/31 12:18:40;;;;;;;4.57;3.22;;;18.70;37.40;;;;;;5168430;27;47032;-15
2022/01/31 12:23:54;;;;;;;6.60;3.30;;;18.60;37.50;;;;;;5165414;27;46863;-15
2022/01/31 12:26:49;;;;;;;4.53;2.80;;;18.70;37.60;;;;;;5168345;27;46901;-15
2022/01/31 12:29:17;;;;;;;4.35;2.90;;;18.80;37.30;;;;;;5168301;27;46897;-15
2022/01/31 12:31:45;;;;;;;5.60;3.17;;;19.10;36.90;;;;;;5167330;27;48210;-15
2022/01/31 12:34:32;;;;;;;5.20;2.75;;;19.20;36.70;;;;;;5168036;27;46933;-15
2022/01/31 12:37:00;;;;;;;4.30;3.10;;;19.30;36.50;;;;;;5167938;27;46825;-15
2022/01/31 12:39:58;;;;;;;6.70;2.70;;;19.20;36.50;;;;;;5168470;27;46916;-15
2022/01/31 14:30:55;;;;;;;4.97;1.88;;;16.80;40.70;;;;;;5143601;27;46806;-14
2022/01/31 14:33:22;;;;;;;5.30;1.98;;;17.40;40.10;;;;;;5143596;27;46905;-14
2022/01/31 14:35:49;;;;;;;3.25;2.15;;;17.60;39.80;;;;;;5144043;27;47168;-14
2022/01/31 14:38:20;;;;;;;3.13;2.13;;;17.70;39.40;;;;;;5143530;27;48809;-14
2022/01/31 14:49:05;;;;;;;3.33;2.10;;;18.20;38.40;;;;;;5141993;27;47028;-15
2022/01/31 14:51:33;;;;;;;4.25;2.25;;;18.30;38.30;;;;;;5143882;27;47450;-14
2022/01/31 14:54:01;;;;;;;3.33;2.28;;;18.30;38.10;;;;;;5141301;27;46941;-15
2022/01/31 14:56:28;;;;;;;3.20;2.70;;;18.40;38.00;;;;;;5142921;27;47302;-15
2022/01/31 14:58:55;;;;;;;4.05;2.17;;;18.40;37.70;;;;;;5143027;27;47778;-15
2022/01/31 15:01:23;;;;;;;3.15;2.58;;;18.50;37.70;;;;;;5143530;27;47192;-16
2022/01/31 15:03:50;;;;;;;3.85;2.17;;;18.60;37.60;;;;;;5143491;27;46733;-15
2022/01/31 15:06:17;;;;;;;3.95;2.53;;;18.60;37.60;;;;;;5143765;27;46938;-14